sensor_id;sensor_type;location;lat;lon;timestamp;temperature;humidity
10433;DHT22;5263;48.680;9.004;2023-11-21T00:01:52;6.60;99.90
10433;DHT22;5263;48.680;9.004;2023-11-21T00:04:18;6.80;99.90
10433;DHT22;5263;48.680;9.004;2023-11-21T00:06:43;6.80;99.90
10433;DHT22;5263;48.680;9.004;2023-11-21T00:09:12;6.90;99.90
10433;DHT22;5263;48.680;9.004;2023-11-21T00:11:38;6.90;99.90
10433;DHT22;5263;48.680;9.004;2023-11-21T00:14:04;6.80;99.90
10433;DHT22;5263;48.680;9.004;2023-11-21T00:16:30;6.90;99.90
10433;DHT22;5263;48.680;9.004;2023-11-21T00:18:55;6.90;99.90
10433;DHT22;5263;48.680;9.004;2023-11-21T00:21:21;6.90;99.90
10433;DHT22;5263;48.680;9.004;2023-11-21T00:23:46;6.90;99.90
10433;DHT22;5263;48.680;9.004;2023-11-21T00:26:12;6.90;99.90
10433;DHT22;5263;48.680;9.004;2023-11-21T00:28:37;6.90;99.90
10433;DHT22;5263;48.680;9.004;2023-11-21T00:31:03;6.90;99.90
10433;DHT22;5263;48.680;9.004;2023-11-21T00:33:29;7.00;99.90
10433;DHT22;5263;48.680;9.004;2023-11-21T00:35:55;7.00;99.90
10433;DHT22;5263;48.680;9.004;2023-11-21T00:38:20;7.00;99.90
10433;DHT22;5263;48.680;9.004;2023-11-21T00:40:46;7.00;99.90
10433;DHT22;5263;48.680;9.004;2023-11-21T00:43:12;7.10;99.90
10433;DHT22;5263;48.680;9.004;2023-11-21T00:45:37;7.00;99.90
10433;DHT22;5263;48.680;9.004;2023-11-21T00:48:03;6.90;99.90
10433;DHT22;5263;48.680;9.004;2023-11-21T00:50:30;6.90;99.90
10433;DHT22;5263;48.680;9.004;2023-11-21T00:52:56;6.90;99.90
10433;DHT22;5263;48.680;9.004;2023-11-21T00:55:21;6.90;99.90
10433;DHT22;5263;48.680;9.004;2023-11-21T00:57:47;6.90;99.90
10433;DHT22;5263;48.680;9.004;2023-11-21T01:00:14;6.90;99.90
10433;DHT22;5263;48.680;9.004;2023-11-21T01:02:43;6.90;99.90
10433;DHT22;5263;48.680;9.004;2023-11-21T01:05:10;7.00;99.90
10433;DHT22;5263;48.680;9.004;2023-11-21T01:07:36;6.90;99.90
10433;DHT22;5263;48.680;9.004;2023-11-21T01:10:03;6.90;99.90
10433;DHT22;5263;48.680;9.004;2023-11-21T01:12:31;7.00;99.90
10433;DHT22;5263;48.680;9.004;2023-11-21T01:14:56;7.00;99.90
10433;DHT22;5263;48.680;9.004;2023-11-21T01:17:25;6.90;99.90
10433;DHT22;5263;48.680;9.004;2023-11-21T01:19:51;6.90;99.90
10433;DHT22;5263;48.680;9.004;2023-11-21T01:22:16;6.90;99.90
10433;DHT22;5263;48.680;9.004;2023-11-21T01:24:47;6.90;99.90
10433;DHT22;5263;48.680;9.004;2023-11-21T01:27:13;6.90;99.90
10433;DHT22;5263;48.680;9.004;2023-11-21T01:29:38;6.90;99.90
10433;DHT22;5263;48.680;9.004;2023-11-21T01:32:05;6.90;99.90
10433;DHT22;5263;48.680;9.004;2023-11-21T01:34:33;6.90;99.90
10433;DHT22;5263;48.680;9.004;2023-11-21T01:36:59;6.80;99.90
10433;DHT22;5263;48.680;9.004;2023-11-21T01:39:25;6.90;99.90
10433;DHT22;5263;48.680;9.004;2023-11-21T01:41:51;6.90;99.90
10433;DHT22;5263;48.680;9.004;2023-11-21T01:44:17;6.90;99.90
10433;DHT22;5263;48.680;9.004;2023-11-21T01:46:45;6.90;99.90
10433;DHT22;5263;48.680;9.004;2023-11-21T01:49:11;6.80;99.90
10433;DHT22;5263;48.680;9.004;2023-11-21T01:51:40;6.80;99.90
10433;DHT22;5263;48.680;9.004;2023-11-21T01:54:06;6.80;99.90
10433;DHT22;5263;48.680;9.004;2023-11-21T01:56:32;6.80;99.90
10433;DHT22;5263;48.680;9.004;2023-11-21T01:58:58;6.70;99.90
10433;DHT22;5263;48.680;9.004;2023-11-21T02:01:23;6.60;99.90
10433;DHT22;5263;48.680;9.004;2023-11-21T02:03:49;6.70;99.90
10433;DHT22;5263;48.680;9.004;2023-11-21T02:06:15;6.80;99.90
10433;DHT22;5263;48.680;9.004;2023-11-21T02:08:40;6.70;99.90
10433;DHT22;5263;48.680;9.004;2023-11-21T02:11:09;6.60;99.90
10433;DHT22;5263;48.680;9.004;2023-11-21T02:13:38;6.70;99.90
10433;DHT22;5263;48.680;9.004;2023-11-21T02:16:04;6.70;99.90
10433;DHT22;5263;48.680;9.004;2023-11-21T02:18:32;6.80;99.90
10433;DHT22;5263;48.680;9.004;2023-11-21T02:20:57;6.70;99.90
10433;DHT22;5263;48.680;9.004;2023-11-21T02:23:23;6.70;99.90
10433;DHT22;5263;48.680;9.004;2023-11-21T02:25:54;6.60;99.90
10433;DHT22;5263;48.680;9.004;2023-11-21T02:28:20;6.70;99.90
10433;DHT22;5263;48.680;9.004;2023-11-21T02:30:51;6.70;99.90
10433;DHT22;5263;48.680;9.004;2023-11-21T02:33:21;6.70;99.90
10433;DHT22;5263;48.680;9.004;2023-11-21T02:35:46;6.70;99.90
10433;DHT22;5263;48.680;9.004;2023-11-21T02:38:12;6.70;99.90
10433;DHT22;5263;48.680;9.004;2023-11-21T02:40:38;6.70;99.90
10433;DHT22;5263;48.680;9.004;2023-11-21T02:43:04;6.70;99.90
10433;DHT22;5263;48.680;9.004;2023-11-21T02:45:31;6.70;99.90
10433;DHT22;5263;48.680;9.004;2023-11-21T02:47:58;6.70;99.90
10433;DHT22;5263;48.680;9.004;2023-11-21T02:50:24;6.70;99.90
10433;DHT22;5263;48.680;9.004;2023-11-21T02:52:50;6.60;99.90
10433;DHT22;5263;48.680;9.004;2023-11-21T02:55:15;6.60;99.90
10433;DHT22;5263;48.680;9.004;2023-11-21T02:57:41;6.60;99.90
10433;DHT22;5263;48.680;9.004;2023-11-21T03:00:07;6.60;99.90
10433;DHT22;5263;48.680;9.004;2023-11-21T03:02:33;6.50;99.90
10433;DHT22;5263;48.680;9.004;2023-11-21T03:05:02;6.60;99.90
10433;DHT22;5263;48.680;9.004;2023-11-21T03:07:28;6.60;99.90
10433;DHT22;5263;48.680;9.004;2023-11-21T03:09:53;6.70;99.90
10433;DHT22;5263;48.680;9.004;2023-11-21T03:12:19;6.60;99.90
10433;DHT22;5263;48.680;9.004;2023-11-21T03:14:44;6.60;99.90
10433;DHT22;5263;48.680;9.004;2023-11-21T03:17:10;6.70;99.90
10433;DHT22;5263;48.680;9.004;2023-11-21T03:19:36;6.60;99.90
10433;DHT22;5263;48.680;9.004;2023-11-21T03:22:02;6.70;99.90
10433;DHT22;5263;48.680;9.004;2023-11-21T03:24:29;6.70;99.90
10433;DHT22;5263;48.680;9.004;2023-11-21T03:26:55;6.70;99.90
10433;DHT22;5263;48.680;9.004;2023-11-21T03:29:20;6.70;99.90
10433;DHT22;5263;48.680;9.004;2023-11-21T03:31:46;6.60;99.90
10433;DHT22;5263;48.680;9.004;2023-11-21T03:34:22;6.60;99.90
10433;DHT22;5263;48.680;9.004;2023-11-21T03:36:48;6.60;99.90
10433;DHT22;5263;48.680;9.004;2023-11-21T03:39:13;6.50;99.90
10433;DHT22;5263;48.680;9.004;2023-11-21T03:41:39;6.60;99.90
10433;DHT22;5263;48.680;9.004;2023-11-21T03:44:05;6.60;99.90
10433;DHT22;5263;48.680;9.004;2023-11-21T03:46:30;6.60;99.90
10433;DHT22;5263;48.680;9.004;2023-11-21T03:48:56;6.70;99.90
10433;DHT22;5263;48.680;9.004;2023-11-21T03:51:21;6.60;99.90
10433;DHT22;5263;48.680;9.004;2023-11-21T03:53:47;6.50;99.90
10433;DHT22;5263;48.680;9.004;2023-11-21T03:56:14;6.60;99.90
10433;DHT22;5263;48.680;9.004;2023-11-21T03:58:39;6.50;99.90
10433;DHT22;5263;48.680;9.004;2023-11-21T04:01:05;6.60;99.90
10433;DHT22;5263;48.680;9.004;2023-11-21T04:03:31;6.70;99.90
10433;DHT22;5263;48.680;9.004;2023-11-21T04:05:56;6.70;99.90
10433;DHT22;5263;48.680;9.004;2023-11-21T04:08:22;6.70;99.90
10433;DHT22;5263;48.680;9.004;2023-11-21T04:10:48;6.70;99.90
10433;DHT22;5263;48.680;9.004;2023-11-21T04:13:14;6.60;99.90
10433;DHT22;5263;48.680;9.004;2023-11-21T04:15:39;6.60;99.90
10433;DHT22;5263;48.680;9.004;2023-11-21T04:18:05;6.60;99.90
10433;DHT22;5263;48.680;9.004;2023-11-21T04:20:30;6.60;99.90
10433;DHT22;5263;48.680;9.004;2023-11-21T04:22:56;6.60;99.90
10433;DHT22;5263;48.680;9.004;2023-11-21T04:25:22;6.60;99.90
10433;DHT22;5263;48.680;9.004;2023-11-21T04:27:48;6.50;99.90
10433;DHT22;5263;48.680;9.004;2023-11-21T04:30:15;6.60;99.90
10433;DHT22;5263;48.680;9.004;2023-11-21T04:32:41;6.50;99.90
10433;DHT22;5263;48.680;9.004;2023-11-21T04:35:07;6.50;99.90
10433;DHT22;5263;48.680;9.004;2023-11-21T04:37:34;6.50;99.90
10433;DHT22;5263;48.680;9.004;2023-11-21T04:39:59;6.50;99.90
10433;DHT22;5263;48.680;9.004;2023-11-21T04:42:25;6.50;99.90
10433;DHT22;5263;48.680;9.004;2023-11-21T04:44:50;6.50;99.90
10433;DHT22;5263;48.680;9.004;2023-11-21T04:47:18;6.60;99.90
10433;DHT22;5263;48.680;9.004;2023-11-21T04:49:46;6.70;99.90
10433;DHT22;5263;48.680;9.004;2023-11-21T04:52:12;6.60;99.90
10433;DHT22;5263;48.680;9.004;2023-11-21T04:54:38;6.60;99.90
10433;DHT22;5263;48.680;9.004;2023-11-21T04:57:05;6.50;99.90
10433;DHT22;5263;48.680;9.004;2023-11-21T04:59:33;6.60;99.90
10433;DHT22;5263;48.680;9.004;2023-11-21T05:01:59;6.60;99.90
10433;DHT22;5263;48.680;9.004;2023-11-21T05:04:25;6.50;99.90
10433;DHT22;5263;48.680;9.004;2023-11-21T05:06:51;6.60;99.90
10433;DHT22;5263;48.680;9.004;2023-11-21T05:09:16;6.60;99.90
10433;DHT22;5263;48.680;9.004;2023-11-21T05:11:43;6.50;99.90
10433;DHT22;5263;48.680;9.004;2023-11-21T05:14:08;6.50;99.90
10433;DHT22;5263;48.680;9.004;2023-11-21T05:16:34;6.50;99.90
10433;DHT22;5263;48.680;9.004;2023-11-21T05:19:00;6.50;99.90
10433;DHT22;5263;48.680;9.004;2023-11-21T05:21:30;6.60;99.90
10433;DHT22;5263;48.680;9.004;2023-11-21T05:23:58;6.60;99.90
10433;DHT22;5263;48.680;9.004;2023-11-21T05:26:24;6.50;99.90
10433;DHT22;5263;48.680;9.004;2023-11-21T05:28:49;6.50;99.90
10433;DHT22;5263;48.680;9.004;2023-11-21T05:31:15;6.40;99.90
10433;DHT22;5263;48.680;9.004;2023-11-21T05:33:41;6.50;99.90
10433;DHT22;5263;48.680;9.004;2023-11-21T05:36:07;6.50;99.90
10433;DHT22;5263;48.680;9.004;2023-11-21T05:38:33;6.30;99.90
10433;DHT22;5263;48.680;9.004;2023-11-21T05:41:00;6.40;99.90
10433;DHT22;5263;48.680;9.004;2023-11-21T05:43:26;6.30;99.90
10433;DHT22;5263;48.680;9.004;2023-11-21T05:45:53;6.30;99.90
10433;DHT22;5263;48.680;9.004;2023-11-21T05:48:19;6.30;99.90
10433;DHT22;5263;48.680;9.004;2023-11-21T05:50:44;6.40;99.90
10433;DHT22;5263;48.680;9.004;2023-11-21T05:53:10;6.40;99.90
10433;DHT22;5263;48.680;9.004;2023-11-21T05:55:36;6.40;99.90
10433;DHT22;5263;48.680;9.004;2023-11-21T05:58:02;6.40;99.90
10433;DHT22;5263;48.680;9.004;2023-11-21T06:00:28;6.40;99.90
10433;DHT22;5263;48.680;9.004;2023-11-21T06:02:54;6.40;99.90
10433;DHT22;5263;48.680;9.004;2023-11-21T06:05:21;6.50;99.90
10433;DHT22;5263;48.680;9.004;2023-11-21T06:07:48;6.50;99.90
10433;DHT22;5263;48.680;9.004;2023-11-21T06:10:14;6.50;99.90
10433;DHT22;5263;48.680;9.004;2023-11-21T06:12:40;6.50;99.90
10433;DHT22;5263;48.680;9.004;2023-11-21T06:15:08;6.40;99.90
10433;DHT22;5263;48.680;9.004;2023-11-21T06:17:35;6.30;99.90
10433;DHT22;5263;48.680;9.004;2023-11-21T06:20:05;6.30;99.90
10433;DHT22;5263;48.680;9.004;2023-11-21T06:22:38;6.30;99.90
10433;DHT22;5263;48.680;9.004;2023-11-21T06:25:04;6.20;99.90
10433;DHT22;5263;48.680;9.004;2023-11-21T06:27:41;6.20;99.90
10433;DHT22;5263;48.680;9.004;2023-11-21T06:30:07;6.30;99.90
10433;DHT22;5263;48.680;9.004;2023-11-21T06:32:37;6.20;99.90
10433;DHT22;5263;48.680;9.004;2023-11-21T06:35:04;6.30;99.90
10433;DHT22;5263;48.680;9.004;2023-11-21T06:37:30;6.30;99.90
10433;DHT22;5263;48.680;9.004;2023-11-21T06:39:57;6.20;99.90
10433;DHT22;5263;48.680;9.004;2023-11-21T06:42:24;6.30;99.90
10433;DHT22;5263;48.680;9.004;2023-11-21T06:44:49;6.40;99.90
10433;DHT22;5263;48.680;9.004;2023-11-21T06:47:17;6.50;99.90
10433;DHT22;5263;48.680;9.004;2023-11-21T06:49:43;6.50;99.90
10433;DHT22;5263;48.680;9.004;2023-11-21T06:52:09;6.60;99.90
10433;DHT22;5263;48.680;9.004;2023-11-21T06:54:34;6.50;99.90
10433;DHT22;5263;48.680;9.004;2023-11-21T06:57:02;6.60;99.90
10433;DHT22;5263;48.680;9.004;2023-11-21T06:59:31;6.60;99.90
10433;DHT22;5263;48.680;9.004;2023-11-21T07:01:57;6.60;99.90
10433;DHT22;5263;48.680;9.004;2023-11-21T07:04:22;6.70;99.90
10433;DHT22;5263;48.680;9.004;2023-11-21T07:06:48;6.70;99.90
10433;DHT22;5263;48.680;9.004;2023-11-21T07:09:13;6.70;99.90
10433;DHT22;5263;48.680;9.004;2023-11-21T07:11:39;6.70;99.90
10433;DHT22;5263;48.680;9.004;2023-11-21T07:14:04;6.70;99.90
10433;DHT22;5263;48.680;9.004;2023-11-21T07:16:37;6.70;99.90
10433;DHT22;5263;48.680;9.004;2023-11-21T07:19:09;6.70;99.90
10433;DHT22;5263;48.680;9.004;2023-11-21T07:21:35;6.80;99.90
10433;DHT22;5263;48.680;9.004;2023-11-21T07:24:02;6.70;99.90
10433;DHT22;5263;48.680;9.004;2023-11-21T07:26:28;6.80;99.90
10433;DHT22;5263;48.680;9.004;2023-11-21T07:28:54;6.70;99.90
10433;DHT22;5263;48.680;9.004;2023-11-21T07:31:20;6.70;99.90
10433;DHT22;5263;48.680;9.004;2023-11-21T07:33:46;6.70;99.90
10433;DHT22;5263;48.680;9.004;2023-11-21T07:36:15;6.70;99.90
10433;DHT22;5263;48.680;9.004;2023-11-21T07:38:42;6.70;99.90
10433;DHT22;5263;48.680;9.004;2023-11-21T07:41:08;6.70;99.90
10433;DHT22;5263;48.680;9.004;2023-11-21T07:43:37;6.80;99.90
10433;DHT22;5263;48.680;9.004;2023-11-21T07:46:03;6.80;99.90
10433;DHT22;5263;48.680;9.004;2023-11-21T07:48:30;6.80;99.90
10433;DHT22;5263;48.680;9.004;2023-11-21T07:50:57;6.80;99.90
10433;DHT22;5263;48.680;9.004;2023-11-21T07:53:24;6.80;99.90
10433;DHT22;5263;48.680;9.004;2023-11-21T07:55:51;6.90;99.90
10433;DHT22;5263;48.680;9.004;2023-11-21T07:58:17;7.00;99.90
10433;DHT22;5263;48.680;9.004;2023-11-21T08:00:43;7.00;99.90
10433;DHT22;5263;48.680;9.004;2023-11-21T08:03:09;7.10;99.90
10433;DHT22;5263;48.680;9.004;2023-11-21T08:05:34;7.20;99.90
10433;DHT22;5263;48.680;9.004;2023-11-21T08:08:00;7.00;99.90
10433;DHT22;5263;48.680;9.004;2023-11-21T08:10:26;7.10;99.90
10433;DHT22;5263;48.680;9.004;2023-11-21T08:12:51;7.10;99.90
10433;DHT22;5263;48.680;9.004;2023-11-21T08:15:19;7.20;99.90
10433;DHT22;5263;48.680;9.004;2023-11-21T08:17:46;7.30;99.90
10433;DHT22;5263;48.680;9.004;2023-11-21T08:20:11;7.30;99.90
10433;DHT22;5263;48.680;9.004;2023-11-21T08:22:37;7.40;99.90
10433;DHT22;5263;48.680;9.004;2023-11-21T08:25:03;7.60;99.90
10433;DHT22;5263;48.680;9.004;2023-11-21T08:27:31;7.70;99.90
10433;DHT22;5263;48.680;9.004;2023-11-21T08:29:57;7.70;99.90
10433;DHT22;5263;48.680;9.004;2023-11-21T08:32:23;7.70;99.90
10433;DHT22;5263;48.680;9.004;2023-11-21T08:34:49;7.70;99.90
10433;DHT22;5263;48.680;9.004;2023-11-21T08:37:16;7.80;99.90
10433;DHT22;5263;48.680;9.004;2023-11-21T08:39:43;7.90;99.90
10433;DHT22;5263;48.680;9.004;2023-11-21T08:42:09;8.20;99.90
10433;DHT22;5263;48.680;9.004;2023-11-21T08:44:35;8.20;99.90
10433;DHT22;5263;48.680;9.004;2023-11-21T08:47:00;8.00;99.90
10433;DHT22;5263;48.680;9.004;2023-11-21T08:49:26;8.10;99.90
10433;DHT22;5263;48.680;9.004;2023-11-21T08:51:53;8.30;99.90
10433;DHT22;5263;48.680;9.004;2023-11-21T08:54:20;8.20;99.90
10433;DHT22;5263;48.680;9.004;2023-11-21T08:56:46;8.20;99.90
10433;DHT22;5263;48.680;9.004;2023-11-21T08:59:12;8.20;99.90
10433;DHT22;5263;48.680;9.004;2023-11-21T09:01:40;8.50;99.90
10433;DHT22;5263;48.680;9.004;2023-11-21T09:04:06;8.50;99.90
10433;DHT22;5263;48.680;9.004;2023-11-21T09:06:32;8.50;99.90
10433;DHT22;5263;48.680;9.004;2023-11-21T09:08:57;8.40;99.90
10433;DHT22;5263;48.680;9.004;2023-11-21T09:11:23;8.20;99.90
10433;DHT22;5263;48.680;9.004;2023-11-21T09:13:51;8.20;99.90
10433;DHT22;5263;48.680;9.004;2023-11-21T09:16:17;8.30;99.90
10433;DHT22;5263;48.680;9.004;2023-11-21T09:18:42;8.10;99.90
10433;DHT22;5263;48.680;9.004;2023-11-21T09:21:08;8.00;99.90
10433;DHT22;5263;48.680;9.004;2023-11-21T09:23:35;8.10;99.90
10433;DHT22;5263;48.680;9.004;2023-11-21T09:26:01;8.30;99.90
10433;DHT22;5263;48.680;9.004;2023-11-21T09:28:27;8.20;99.90
10433;DHT22;5263;48.680;9.004;2023-11-21T09:30:53;8.20;99.90
10433;DHT22;5263;48.680;9.004;2023-11-21T09:33:19;8.20;99.90
10433;DHT22;5263;48.680;9.004;2023-11-21T09:35:44;8.30;99.90
10433;DHT22;5263;48.680;9.004;2023-11-21T09:38:10;8.50;99.90
10433;DHT22;5263;48.680;9.004;2023-11-21T09:40:36;8.70;99.90
10433;DHT22;5263;48.680;9.004;2023-11-21T09:43:08;8.90;99.90
10433;DHT22;5263;48.680;9.004;2023-11-21T09:45:39;8.90;99.90
10433;DHT22;5263;48.680;9.004;2023-11-21T09:48:06;8.90;99.90
10433;DHT22;5263;48.680;9.004;2023-11-21T09:50:33;8.80;99.90
10433;DHT22;5263;48.680;9.004;2023-11-21T09:55:47;8.70;99.90
10433;DHT22;5263;48.680;9.004;2023-11-21T09:58:14;8.40;99.90
10433;DHT22;5263;48.680;9.004;2023-11-21T10:00:41;8.00;99.90
10433;DHT22;5263;48.680;9.004;2023-11-21T10:03:07;7.80;99.90
10433;DHT22;5263;48.680;9.004;2023-11-21T10:05:34;7.90;99.90
10433;DHT22;5263;48.680;9.004;2023-11-21T10:07:59;7.80;99.90
10433;DHT22;5263;48.680;9.004;2023-11-21T10:10:26;7.70;99.90
10433;DHT22;5263;48.680;9.004;2023-11-21T10:12:56;7.70;99.90
10433;DHT22;5263;48.680;9.004;2023-11-21T10:15:23;7.80;99.90
10433;DHT22;5263;48.680;9.004;2023-11-21T10:17:52;7.80;99.90
10433;DHT22;5263;48.680;9.004;2023-11-21T10:20:19;7.80;99.90
10433;DHT22;5263;48.680;9.004;2023-11-21T10:22:45;7.80;99.90
10433;DHT22;5263;48.680;9.004;2023-11-21T10:25:11;7.80;99.90
10433;DHT22;5263;48.680;9.004;2023-11-21T10:27:40;7.80;99.90
10433;DHT22;5263;48.680;9.004;2023-11-21T10:30:07;7.70;99.90
10433;DHT22;5263;48.680;9.004;2023-11-21T10:32:43;7.70;99.90
10433;DHT22;5263;48.680;9.004;2023-11-21T10:35:09;7.80;99.90
10433;DHT22;5263;48.680;9.004;2023-11-21T10:37:39;7.90;99.90
10433;DHT22;5263;48.680;9.004;2023-11-21T10:40:09;7.90;99.90
10433;DHT22;5263;48.680;9.004;2023-11-21T10:42:37;8.00;99.90
10433;DHT22;5263;48.680;9.004;2023-11-21T10:45:04;7.90;99.90
10433;DHT22;5263;48.680;9.004;2023-11-21T10:47:35;7.90;99.90
10433;DHT22;5263;48.680;9.004;2023-11-21T10:50:01;8.00;99.90
10433;DHT22;5263;48.680;9.004;2023-11-21T10:52:27;7.90;99.90
10433;DHT22;5263;48.680;9.004;2023-11-21T10:54:53;8.00;99.90
10433;DHT22;5263;48.680;9.004;2023-11-21T10:57:20;8.00;99.90
10433;DHT22;5263;48.680;9.004;2023-11-21T10:59:47;7.90;99.90
10433;DHT22;5263;48.680;9.004;2023-11-21T11:02:32;7.90;99.90
10433;DHT22;5263;48.680;9.004;2023-11-21T11:05:00;8.10;99.90
10433;DHT22;5263;48.680;9.004;2023-11-21T11:07:27;8.00;99.90
10433;DHT22;5263;48.680;9.004;2023-11-21T11:09:56;7.90;99.90
10433;DHT22;5263;48.680;9.004;2023-11-21T11:12:23;8.20;99.90
10433;DHT22;5263;48.680;9.004;2023-11-21T11:14:49;8.40;99.90
10433;DHT22;5263;48.680;9.004;2023-11-21T11:17:17;8.50;99.90
10433;DHT22;5263;48.680;9.004;2023-11-21T11:19:46;8.50;99.90
10433;DHT22;5263;48.680;9.004;2023-11-21T11:22:29;8.50;99.90
10433;DHT22;5263;48.680;9.004;2023-11-21T11:27:57;8.50;99.90
10433;DHT22;5263;48.680;9.004;2023-11-21T11:30:45;8.50;99.90
10433;DHT22;5263;48.680;9.004;2023-11-21T11:33:48;8.50;99.90
10433;DHT22;5263;48.680;9.004;2023-11-21T11:36:31;8.40;99.90
10433;DHT22;5263;48.680;9.004;2023-11-21T11:38:59;8.40;99.90
10433;DHT22;5263;48.680;9.004;2023-11-21T11:41:30;8.40;99.90
10433;DHT22;5263;48.680;9.004;2023-11-21T11:43:58;8.30;99.90
10433;DHT22;5263;48.680;9.004;2023-11-21T11:46:42;8.50;99.90
10433;DHT22;5263;48.680;9.004;2023-11-21T11:49:10;8.60;99.90
10433;DHT22;5263;48.680;9.004;2023-11-21T11:51:36;8.80;99.90
10433;DHT22;5263;48.680;9.004;2023-11-21T11:54:02;8.90;99.90
10433;DHT22;5263;48.680;9.004;2023-11-21T11:56:33;8.80;99.90
10433;DHT22;5263;48.680;9.004;2023-11-21T11:59:04;8.80;99.90
10433;DHT22;5263;48.680;9.004;2023-11-21T12:01:32;8.60;99.90
10433;DHT22;5263;48.680;9.004;2023-11-21T12:06:46;8.40;99.90
10433;DHT22;5263;48.680;9.004;2023-11-21T12:09:21;8.20;99.90
10433;DHT22;5263;48.680;9.004;2023-11-21T12:11:47;8.10;99.90
10433;DHT22;5263;48.680;9.004;2023-11-21T12:14:14;8.10;99.90
10433;DHT22;5263;48.680;9.004;2023-11-21T12:16:40;8.20;99.90
10433;DHT22;5263;48.680;9.004;2023-11-21T12:19:06;8.20;99.90
10433;DHT22;5263;48.680;9.004;2023-11-21T12:21:32;8.20;99.90
10433;DHT22;5263;48.680;9.004;2023-11-21T12:23:58;8.10;99.90
10433;DHT22;5263;48.680;9.004;2023-11-21T12:26:24;8.00;99.90
10433;DHT22;5263;48.680;9.004;2023-11-21T12:28:53;7.90;99.90
10433;DHT22;5263;48.680;9.004;2023-11-21T12:31:24;8.00;99.90
10433;DHT22;5263;48.680;9.004;2023-11-21T12:33:50;8.20;99.90
10433;DHT22;5263;48.680;9.004;2023-11-21T12:36:16;8.30;99.90
10433;DHT22;5263;48.680;9.004;2023-11-21T12:38:42;8.40;99.90
10433;DHT22;5263;48.680;9.004;2023-11-21T12:41:10;8.60;99.90
10433;DHT22;5263;48.680;9.004;2023-11-21T12:43:36;8.70;99.90
10433;DHT22;5263;48.680;9.004;2023-11-21T12:46:13;8.90;99.90
10433;DHT22;5263;48.680;9.004;2023-11-21T12:48:44;9.10;99.90
10433;DHT22;5263;48.680;9.004;2023-11-21T12:51:11;9.10;99.90
10433;DHT22;5263;48.680;9.004;2023-11-21T12:53:38;9.30;99.90
10433;DHT22;5263;48.680;9.004;2023-11-21T12:56:09;9.40;99.90
10433;DHT22;5263;48.680;9.004;2023-11-21T12:58:36;9.60;99.90
10433;DHT22;5263;48.680;9.004;2023-11-21T13:01:02;9.70;99.90
10433;DHT22;5263;48.680;9.004;2023-11-21T13:03:29;9.70;99.90
10433;DHT22;5263;48.680;9.004;2023-11-21T13:05:55;9.60;99.90
10433;DHT22;5263;48.680;9.004;2023-11-21T13:08:23;9.90;99.90
10433;DHT22;5263;48.680;9.004;2023-11-21T13:10:52;9.80;99.90
10433;DHT22;5263;48.680;9.004;2023-11-21T13:13:19;9.70;99.90
10433;DHT22;5263;48.680;9.004;2023-11-21T13:15:56;9.80;99.90
10433;DHT22;5263;48.680;9.004;2023-11-21T13:18:25;9.80;99.90
10433;DHT22;5263;48.680;9.004;2023-11-21T13:21:08;9.60;99.90
10433;DHT22;5263;48.680;9.004;2023-11-21T13:23:39;9.40;99.90
10433;DHT22;5263;48.680;9.004;2023-11-21T13:26:07;9.50;99.90
10433;DHT22;5263;48.680;9.004;2023-11-21T13:28:34;9.60;99.90
10433;DHT22;5263;48.680;9.004;2023-11-21T13:31:00;9.50;99.90
10433;DHT22;5263;48.680;9.004;2023-11-21T13:33:46;9.30;99.90
10433;DHT22;5263;48.680;9.004;2023-11-21T13:36:16;9.00;99.90
10433;DHT22;5263;48.680;9.004;2023-11-21T13:38:48;8.70;99.90
10433;DHT22;5263;48.680;9.004;2023-11-21T13:41:14;8.70;99.90
10433;DHT22;5263;48.680;9.004;2023-11-21T13:43:40;8.60;99.90
10433;DHT22;5263;48.680;9.004;2023-11-21T13:46:09;8.70;99.90
10433;DHT22;5263;48.680;9.004;2023-11-21T13:48:47;8.70;99.90
10433;DHT22;5263;48.680;9.004;2023-11-21T13:51:24;8.80;99.90
10433;DHT22;5263;48.680;9.004;2023-11-21T13:54:07;8.90;99.90
10433;DHT22;5263;48.680;9.004;2023-11-21T13:56:35;8.60;99.90
10433;DHT22;5263;48.680;9.004;2023-11-21T13:59:01;8.70;99.90
10433;DHT22;5263;48.680;9.004;2023-11-21T14:01:35;8.50;99.90
10433;DHT22;5263;48.680;9.004;2023-11-21T14:04:19;8.20;99.90
10433;DHT22;5263;48.680;9.004;2023-11-21T14:06:56;8.10;99.90
10433;DHT22;5263;48.680;9.004;2023-11-21T14:09:24;8.00;99.90
10433;DHT22;5263;48.680;9.004;2023-11-21T14:11:57;8.20;99.90
10433;DHT22;5263;48.680;9.004;2023-11-21T14:14:25;8.20;99.90
10433;DHT22;5263;48.680;9.004;2023-11-21T14:16:51;8.30;99.90
10433;DHT22;5263;48.680;9.004;2023-11-21T14:19:18;8.20;99.90
10433;DHT22;5263;48.680;9.004;2023-11-21T14:21:44;8.30;99.90
10433;DHT22;5263;48.680;9.004;2023-11-21T14:24:11;8.30;99.90
10433;DHT22;5263;48.680;9.004;2023-11-21T14:26:42;8.30;99.90
10433;DHT22;5263;48.680;9.004;2023-11-21T14:29:08;8.20;99.90
10433;DHT22;5263;48.680;9.004;2023-11-21T14:31:36;8.20;99.90
10433;DHT22;5263;48.680;9.004;2023-11-21T14:34:02;8.20;99.90
10433;DHT22;5263;48.680;9.004;2023-11-21T14:36:28;8.20;99.90
10433;DHT22;5263;48.680;9.004;2023-11-21T14:38:54;8.20;99.90
10433;DHT22;5263;48.680;9.004;2023-11-21T14:41:19;8.30;99.90
10433;DHT22;5263;48.680;9.004;2023-11-21T14:43:45;8.30;99.90
10433;DHT22;5263;48.680;9.004;2023-11-21T14:46:13;8.30;99.90
10433;DHT22;5263;48.680;9.004;2023-11-21T14:48:42;8.10;99.90
10433;DHT22;5263;48.680;9.004;2023-11-21T14:51:11;8.00;99.90
10433;DHT22;5263;48.680;9.004;2023-11-21T14:53:55;8.40;99.90
10433;DHT22;5263;48.680;9.004;2023-11-21T14:56:26;8.20;99.90
10433;DHT22;5263;48.680;9.004;2023-11-21T14:58:56;8.20;99.90
10433;DHT22;5263;48.680;9.004;2023-11-21T15:01:23;8.20;99.90
10433;DHT22;5263;48.680;9.004;2023-11-21T15:04:08;8.00;99.90
10433;DHT22;5263;48.680;9.004;2023-11-21T15:06:40;8.00;99.90
10433;DHT22;5263;48.680;9.004;2023-11-21T15:09:08;8.00;99.90
10433;DHT22;5263;48.680;9.004;2023-11-21T15:11:34;8.30;99.90
10433;DHT22;5263;48.680;9.004;2023-11-21T15:14:02;8.10;99.90
10433;DHT22;5263;48.680;9.004;2023-11-21T15:16:32;8.10;99.90
10433;DHT22;5263;48.680;9.004;2023-11-21T15:18:58;8.00;99.90
10433;DHT22;5263;48.680;9.004;2023-11-21T15:21:23;7.90;99.90
10433;DHT22;5263;48.680;9.004;2023-11-21T15:23:50;7.90;99.90
10433;DHT22;5263;48.680;9.004;2023-11-21T15:26:16;7.80;99.90
10433;DHT22;5263;48.680;9.004;2023-11-21T15:28:41;7.80;99.90
10433;DHT22;5263;48.680;9.004;2023-11-21T15:31:07;7.80;99.90
10433;DHT22;5263;48.680;9.004;2023-11-21T15:33:34;7.90;99.90
10433;DHT22;5263;48.680;9.004;2023-11-21T15:36:01;7.80;99.90
10433;DHT22;5263;48.680;9.004;2023-11-21T15:38:27;7.90;99.90
10433;DHT22;5263;48.680;9.004;2023-11-21T15:40:53;7.80;99.90
10433;DHT22;5263;48.680;9.004;2023-11-21T15:43:20;7.70;99.90
10433;DHT22;5263;48.680;9.004;2023-11-21T15:45:45;7.50;99.90
10433;DHT22;5263;48.680;9.004;2023-11-21T15:48:11;7.40;99.90
10433;DHT22;5263;48.680;9.004;2023-11-21T15:50:36;7.40;99.90
10433;DHT22;5263;48.680;9.004;2023-11-21T15:53:02;7.40;99.90
10433;DHT22;5263;48.680;9.004;2023-11-21T15:55:30;7.40;99.90
10433;DHT22;5263;48.680;9.004;2023-11-21T15:57:56;7.40;99.90
10433;DHT22;5263;48.680;9.004;2023-11-21T16:00:21;7.40;99.90
10433;DHT22;5263;48.680;9.004;2023-11-21T16:02:49;7.40;99.90
10433;DHT22;5263;48.680;9.004;2023-11-21T16:05:15;7.30;99.90
10433;DHT22;5263;48.680;9.004;2023-11-21T16:07:42;7.40;99.90
10433;DHT22;5263;48.680;9.004;2023-11-21T16:10:09;7.40;99.90
10433;DHT22;5263;48.680;9.004;2023-11-21T16:12:40;7.30;99.90